Time;durP1;ratioP1;P1;durP2;ratioP2;P2;SDS_P1;SDS_P2;PMS_P1;PMS_P2;Temp;Humidity;BMP_temperature;BMP_pressure;BME280_temperature;BME280_humidity;BME280_pressure;Samples;Min_cycle;Max_cycle;Signal;HPM_P1;HPM_P2
2022/02/08 00:04:12;;;;;;;7.20;6.60;;;;;;;2.18;93.71;94254.31;5054132;28;20390;-81
2022/02/08 00:06:43;;;;;;;7.13;5.70;;;;;;;2.12;92.95;94241.75;5053931;28;20943;-82
2022/02/08 00:09:11;;;;;;;6.30;5.70;;;;;;;2.15;93.32;94233.81;5054282;28;20532;-81
2022/02/08 00:11:39;;;;;;;8.05;7.30;;;;;;;2.10;93.18;94234.09;5054058;28;20433;-82
2022/02/08 00:14:06;;;;;;;10.80;6.87;;;;;;;2.17;93.14;94226.78;5053946;28;20265;-82
2022/02/08 00:16:33;;;;;;;12.50;7.60;;;;;;;2.19;93.56;94224.91;5054534;28;20517;-80
2022/02/08 00:19:00;;;;;;;7.07;6.20;;;;;;;2.16;93.04;94228.53;5018126;28;20482;-82
2022/02/08 00:21:28;;;;;;;7.53;6.82;;;;;;;2.07;93.13;94225.69;5053268;28;20442;-81
2022/02/08 00:23:55;;;;;;;6.85;6.18;;;;;;;2.03;92.84;94232.81;5053572;28;20658;-81
2022/02/08 00:26:22;;;;;;;10.73;6.07;;;;;;;1.98;92.27;94234.84;5053912;28;20202;-81
2022/02/08 00:28:49;;;;;;;6.28;5.68;;;;;;;2.03;92.91;94235.41;5053618;28;20202;-81
2022/02/08 00:31:17;;;;;;;6.60;5.70;;;;;;;2.09;93.01;94224.69;5053904;28;20210;-81
2022/02/08 00:33:44;;;;;;;5.73;5.03;;;;;;;2.06;92.67;94235.22;5053766;28;20214;-82
2022/02/08 00:36:10;;;;;;;6.32;5.82;;;;;;;2.08;92.56;94243.72;5019099;28;20445;-81
2022/02/08 00:38:39;;;;;;;6.70;5.95;;;;;;;2.08;92.20;94237.72;5053725;28;20214;-81
2022/02/08 00:41:06;;;;;;;9.70;5.90;;;;;;;2.13;91.23;94251.19;5053586;28;20222;-81
2022/02/08 00:43:38;;;;;;;5.60;5.10;;;;;;;2.11;91.45;94253.03;5054358;28;20207;-81
2022/02/08 00:46:10;;;;;;;6.80;6.10;;;;;;;2.11;90.99;94232.34;5053592;28;20534;-80
2022/02/08 00:48:42;;;;;;;8.68;6.00;;;;;;;2.09;91.43;94252.31;5053796;28;20455;-80
2022/02/08 00:51:11;;;;;;;5.93;5.43;;;;;;;2.20;93.71;94252.47;5053624;28;20191;-81
2022/02/08 00:57:10;;;;;;;5.15;4.75;;;;;;;2.03;90.27;94265.63;5053339;28;20217;-80
2022/02/08 00:59:37;;;;;;;5.25;4.88;;;;;;;2.05;90.26;94262.03;5054022;28;20214;-80
2022/02/08 01:02:05;;;;;;;6.03;5.18;;;;;;;2.09;90.85;94260.06;5053407;28;20199;-81
2022/02/08 01:04:33;;;;;;;7.38;5.40;;;;;;;1.99;90.26;94252.03;5053483;28;20191;-80
2022/02/08 01:07:00;;;;;;;6.43;5.23;;;;;;;2.01;89.68;94268.28;5053663;28;20246;-81
2022/02/08 01:09:39;;;;;;;4.90;4.50;;;;;;;1.97;90.58;94269.41;5053610;28;20465;-82
2022/02/08 01:12:07;;;;;;;7.55;5.50;;;;;;;1.96;90.42;94261.72;5053366;28;20446;-81
2022/02/08 01:14:39;;;;;;;6.50;5.90;;;;;;;1.94;91.09;94268.75;5053201;28;20189;-81
2022/02/08 01:17:07;;;;;;;7.25;5.60;;;;;;;1.92;91.19;94268.84;5053439;28;20196;-81
2022/02/08 01:19:36;;;;;;;4.80;4.13;;;;;;;1.83;90.26;94262.50;5053176;28;20254;-82
2022/02/08 01:22:03;;;;;;;4.85;4.45;;;;;;;1.82;90.28;94263.44;4986061;28;20229;-81
2022/02/08 01:24:30;;;;;;;4.75;4.35;;;;;;;1.85;90.35;94271.00;5053006;28;20282;-80
2022/02/08 01:27:03;;;;;;;5.60;5.05;;;;;;;1.81;89.69;94268.69;5053441;28;20211;-81
2022/02/08 01:45:46;;;;;;;5.20;4.50;;;;;;;1.70;89.58;94284.84;5029823;28;20215;-81
2022/02/08 01:48:16;;;;;;;4.72;4.38;;;;;;;1.73;89.79;94282.06;5031130;28;20211;-80
2022/02/08 01:50:43;;;;;;;6.15;4.85;;;;;;;1.72;89.41;94283.00;5030822;28;20239;-81
2022/02/08 01:53:10;;;;;;;7.10;5.85;;;;;;;1.78;89.68;94293.00;5031608;28;20212;-80
2022/02/08 01:55:39;;;;;;;6.80;5.57;;;;;;;1.72;89.84;94282.16;5031079;28;20227;-81
2022/02/08 01:58:06;;;;;;;5.97;4.88;;;;;;;1.83;89.29;94305.63;5030842;28;20454;-82
2022/02/08 02:00:33;;;;;;;6.05;5.50;;;;;;;1.87;89.02;94301.94;5030870;28;20639;-81
2022/02/08 02:16:38;;;;;;;11.82;6.85;;;;;;;1.51;89.44;94304.97;5055024;28;20298;-82
2022/02/08 02:19:05;;;;;;;7.50;5.80;;;;;;;1.55;89.00;94309.03;5056440;28;20215;-81
2022/02/08 02:21:32;;;;;;;6.70;6.07;;;;;;;1.61;90.12;94305.25;5055860;28;20192;-81
2022/02/08 02:24:00;;;;;;;7.20;6.07;;;;;;;1.69;90.01;94319.38;5056562;28;20195;-81
2022/02/08 02:26:27;;;;;;;6.93;6.07;;;;;;;1.66;88.89;94309.22;5056092;28;20577;-81
2022/02/08 02:28:54;;;;;;;6.40;5.75;;;;;;;1.65;88.79;94322.25;5057093;28;20206;-81
2022/02/08 02:31:21;;;;;;;6.95;5.85;;;;;;;1.56;88.47;94318.47;5056608;28;20203;-81
2022/02/08 02:33:48;;;;;;;7.60;6.20;;;;;;;1.61;89.77;94333.69;5056752;28;20549;-82
2022/02/08 02:36:15;;;;;;;7.63;4.05;;;;;;;1.51;89.55;94329.06;5055686;28;20188;-81
2022/02/08 02:42:11;;;;;;;6.68;6.07;;;;;;;1.50;90.17;94321.41;5055594;28;20241;-81
2022/02/08 02:44:38;;;;;;;8.70;7.70;;;;;;;1.57;89.21;94345.97;5055838;28;20274;-82
2022/02/08 02:47:05;;;;;;;7.68;6.90;;;;;;;1.52;89.40;94340.25;5056080;28;20203;-83
2022/02/08 02:49:32;;;;;;;6.35;5.72;;;;;;;1.46;89.27;94338.84;5037501;28;20203;-82
2022/02/08 02:52:00;;;;;;;7.70;5.47;;;;;;;1.49;89.06;94349.03;5021088;28;20238;-81
2022/02/08 02:54:28;;;;;;;5.43;4.93;;;;;;;1.44;89.09;94355.34;5055679;28;20203;-81
2022/02/08 02:56:59;;;;;;;5.95;5.43;;;;;;;1.42;89.62;94359.78;5055912;28;20195;-81
2022/02/08 02:59:30;;;;;;;5.95;5.45;;;;;;;1.44;88.57;94334.66;5055587;28;20269;-82
2022/02/08 03:02:19;;;;;;;6.18;5.57;;;;;;;1.42;89.17;94346.84;5037462;28;20209;-81
2022/02/08 03:04:53;;;;;;;7.53;6.32;;;;;;;1.40;89.96;94353.88;5055620;28;20187;-81
2022/02/08 03:21:04;;;;;;;7.70;5.93;;;;;;;1.45;89.76;94377.72;5054903;28;20183;-82
2022/02/08 03:40:35;;;;;;;7.00;6.40;;;;;;;1.39;88.20;94396.97;5053418;28;20222;-82
2022/02/08 03:43:14;;;;;;;4.88;4.47;;;;;;;1.37;88.23;94404.00;5055307;28;20195;-82
2022/02/08 03:45:49;;;;;;;7.07;5.35;;;;;;;1.42;88.95;94407.13;5054872;28;20199;-82
2022/02/08 03:48:18;;;;;;;6.22;5.70;;;;;;;1.41;88.40;94397.72;5054987;28;20192;-81
2022/02/08 03:50:51;;;;;;;5.85;5.25;;;;;;;1.46;88.13;94393.16;5054408;28;20694;-82
2022/02/08 03:53:18;;;;;;;7.13;6.53;;;;;;;1.46;88.49;94389.72;5054592;28;20643;-81
2022/02/08 03:55:47;;;;;;;6.88;5.22;;;;;;;1.45;88.77;94401.00;5035958;28;20209;-81
2022/02/08 03:58:14;;;;;;;5.78;5.32;;;;;;;1.48;88.85;94413.72;5054257;28;20249;-82
2022/02/08 04:00:53;;;;;;;7.82;5.53;;;;;;;1.48;88.85;94398.22;5054221;28;20617;-82
2022/02/08 04:03:22;;;;;;;7.28;6.10;;;;;;;1.52;89.07;94407.47;5055049;28;20195;-81
2022/02/08 04:05:51;;;;;;;5.97;5.28;;;;;;;1.54;88.40;94403.03;5054064;28;20205;-81
2022/02/08 04:08:19;;;;;;;6.90;6.20;;;;;;;1.52;88.46;94410.06;5054444;28;20197;-82
2022/02/08 04:10:47;;;;;;;7.45;5.97;;;;;;;1.44;87.93;94412.22;5053871;28;20563;-80
2022/02/08 04:13:15;;;;;;;9.40;6.60;;;;;;;1.48;88.52;94405.97;5053879;28;20203;-81
2022/02/08 04:16:02;;;;;;;8.57;6.80;;;;;;;1.46;89.24;94419.00;5053909;28;20554;-81
2022/02/08 04:32:24;;;;;;;8.93;5.70;;;;;;;1.44;87.60;94463.91;4990951;28;20204;-81
2022/02/08 04:35:05;;;;;;;10.45;7.15;;;;;;;1.35;87.66;94438.59;4991057;28;20264;-81
2022/02/08 04:37:54;;;;;;;10.10;7.40;;;;;;;1.48;88.10;94455.09;4991054;28;20201;-82
2022/02/08 04:43:28;;;;;;;5.22;4.72;;;;;;;1.41;87.27;94461.50;4992268;28;20189;-81
2022/02/08 04:45:59;;;;;;;9.02;6.32;;;;;;;1.41;87.17;94471.84;4992814;28;20554;-81
2022/02/08 04:55:41;;;;;;;12.77;8.23;;;;;;;1.47;86.90;94499.97;4992233;28;20169;-82
2022/02/08 04:58:19;;;;;;;7.65;6.45;;;;;;;1.44;86.21;94505.28;4991739;28;20205;-82
2022/02/08 05:01:00;;;;;;;7.50;5.95;;;;;;;1.38;85.42;94500.47;5025310;28;20229;-83
2022/02/08 05:42:27;;;;;;;8.25;6.60;;;;;;;1.35;83.24;94562.66;5013192;28;20690;-82
2022/02/08 05:44:58;;;;;;;10.50;5.53;;;;;;;1.31;83.73;94576.66;5013679;28;20197;-83
2022/02/08 05:47:27;;;;;;;7.50;6.60;;;;;;;1.29;83.41;94581.94;5013924;28;20203;-82
2022/02/08 05:50:07;;;;;;;6.57;5.63;;;;;;;1.35;84.31;94593.69;5013670;28;20196;-83
2022/02/08 05:52:46;;;;;;;8.05;6.63;;;;;;;1.38;84.38;94596.09;5013175;28;20205;-83
2022/02/08 05:55:14;;;;;;;6.53;5.32;;;;;;;1.36;83.24;94595.34;5014671;28;20762;-82
2022/02/08 05:57:41;;;;;;;6.40;5.10;;;;;;;1.42;83.26;94611.34;5014772;28;20204;-82
2022/02/08 06:00:10;;;;;;;17.27;8.10;;;;;;;1.37;83.01;94622.88;5014313;28;20227;-83
2022/02/08 06:02:38;;;;;;;6.50;5.88;;;;;;;1.36;83.34;94645.28;5012513;28;20205;-83
2022/02/08 06:05:09;;;;;;;8.63;5.78;;;;;;;1.33;83.54;94644.63;4993596;28;20209;-82
2022/02/08 06:07:36;;;;;;;6.65;5.13;;;;;;;1.31;83.41;94654.22;4994214;28;20287;-83
2022/02/08 06:10:04;;;;;;;7.60;6.35;;;;;;;1.29;83.62;94661.22;4993946;28;20208;-83
2022/02/08 06:12:31;;;;;;;9.00;5.90;;;;;;;1.29;83.62;94663.78;4993771;28;20228;-82
2022/02/08 06:15:01;;;;;;;5.82;5.05;;;;;;;1.26;82.97;94671.72;4994717;28;20300;-80
2022/02/08 06:17:27;;;;;;;6.15;5.63;;;;;;;1.21;82.73;94677.97;5035372;28;20250;-83
2022/02/08 06:19:56;;;;;;;6.63;5.97;;;;;;;1.23;83.41;94672.72;5035277;28;20231;-81
2022/02/08 06:22:23;;;;;;;12.27;8.50;;;;;;;1.29;83.91;94685.31;5040623;28;20253;-82
2022/02/08 06:24:50;;;;;;;9.23;6.35;;;;;;;1.34;83.62;94680.72;5054915;28;20201;-81
2022/02/08 06:27:17;;;;;;;11.55;7.65;;;;;;;1.36;83.37;94686.66;5054513;28;20278;-81
2022/02/08 06:29:44;;;;;;;8.57;6.57;;;;;;;1.38;83.10;94682.22;5054710;28;20572;-80
2022/02/08 06:32:11;;;;;;;27.13;9.52;;;;;;;1.44;82.93;94696.56;5056867;28;20205;-88
2022/02/08 06:34:38;;;;;;;10.38;7.60;;;;;;;1.53;82.54;94688.34;5057816;28;20203;-84
2022/02/08 06:37:11;;;;;;;14.70;8.25;;;;;;;1.57;81.70;94702.78;5056075;28;20187;-81
2022/02/08 06:39:38;;;;;;;12.80;8.55;;;;;;;1.56;81.70;94706.28;5056108;28;20221;-81
2022/02/08 06:42:08;;;;;;;9.43;7.28;;;;;;;1.57;81.41;94722.66;5055921;28;20211;-81
2022/02/08 06:44:35;;;;;;;8.75;6.43;;;;;;;1.55;81.28;94730.47;5055734;28;20198;-81
2022/02/08 06:47:03;;;;;;;7.60;6.10;;;;;;;1.51;81.31;94731.56;5055981;28;20302;-81
2022/02/08 06:49:29;;;;;;;13.15;10.20;;;;;;;1.49;81.18;94731.63;5055913;28;20545;-81
2022/02/08 06:51:57;;;;;;;8.82;6.80;;;;;;;1.62;80.77;94737.00;5055274;28;20207;-82
2022/02/08 06:54:25;;;;;;;8.52;7.50;;;;;;;1.67;81.44;94755.69;5055246;28;20199;-83
2022/02/08 06:56:52;;;;;;;8.40;6.30;;;;;;;1.59;81.21;94746.66;5055499;28;20187;-82
2022/02/08 06:59:19;;;;;;;11.38;6.93;;;;;;;1.61;80.55;94770.69;5055934;28;20199;-83
2022/02/08 07:01:47;;;;;;;18.15;11.95;;;;;;;1.64;80.97;94778.28;5055383;28;20188;-81
2022/02/08 07:14:23;;;;;;;18.50;9.18;;;;;;;1.54;81.43;94791.69;5035239;28;20183;-81
2022/02/08 07:16:50;;;;;;;17.40;8.25;;;;;;;1.53;80.92;94790.03;5035125;28;20188;-82
2022/02/08 07:19:17;;;;;;;11.75;8.68;;;;;;;1.53;81.48;94795.22;5035930;28;20198;-82
2022/02/08 07:21:44;;;;;;;25.75;15.40;;;;;;;1.48;81.44;94792.03;5034920;28;20196;-82
2022/02/08 07:24:11;;;;;;;14.05;9.77;;;;;;;1.45;81.21;94799.09;5035205;28;20657;-82
2022/02/08 07:26:38;;;;;;;19.58;12.88;;;;;;;1.44;81.41;94790.47;5034998;28;20721;-82
2022/02/08 07:29:05;;;;;;;21.77;14.23;;;;;;;1.40;81.76;94794.13;5035097;28;20214;-81
2022/02/08 07:48:21;;;;;;;20.52;10.77;;;;;;;1.49;81.37;94814.38;5034618;28;20184;-82
2022/02/08 07:50:51;;;;;;;15.77;11.60;;;;;;;1.53;81.24;94823.66;5034388;28;20200;-82
2022/02/08 07:53:19;;;;;;;11.23;7.72;;;;;;;1.55;81.10;94827.00;5032727;28;20202;-83
2022/02/08 07:55:46;;;;;;;9.95;7.50;;;;;;;1.60;81.65;94826.75;5034283;28;20190;-81
2022/02/08 07:58:13;;;;;;;30.40;15.35;;;;;;;1.71;80.89;94832.19;5034610;28;20203;-83
2022/02/08 08:00:40;;;;;;;25.58;13.75;;;;;;;1.77;80.10;94834.50;5034889;28;20211;-82
2022/02/08 08:03:07;;;;;;;32.65;18.48;;;;;;;1.80;79.56;94842.09;5037545;28;20274;-82
2022/02/08 08:05:36;;;;;;;19.63;11.25;;;;;;;1.84;79.31;94842.75;5018923;28;20199;-82
2022/02/08 08:08:03;;;;;;;43.10;23.08;;;;;;;1.89;79.50;94853.72;5054260;28;20199;-81
2022/02/08 08:10:31;;;;;;;26.98;15.15;;;;;;;2.03;80.28;94868.53;5053741;28;20209;-82
2022/02/08 08:13:01;;;;;;;39.55;23.05;;;;;;;2.08;78.94;94874.31;5054061;28;20191;-83
2022/02/08 08:15:37;;;;;;;14.73;10.20;;;;;;;2.05;78.93;94870.13;5053685;28;20195;-82
2022/02/08 08:18:18;;;;;;;16.30;10.03;;;;;;;2.26;79.21;94875.91;5054047;28;20499;-80
2022/02/08 08:20:47;;;;;;;20.67;12.27;;;;;;;2.30;77.97;94882.59;5054311;28;20563;-82
2022/02/08 08:23:14;;;;;;;22.10;12.60;;;;;;;2.23;77.98;94876.06;5054166;28;20318;-82
2022/02/08 08:25:41;;;;;;;14.68;8.27;;;;;;;2.23;78.56;94883.84;5053689;28;20440;-82
2022/02/08 08:28:09;;;;;;;14.73;9.02;;;;;;;2.17;78.78;94884.16;5053846;28;20203;-81
2022/02/08 08:30:36;;;;;;;10.57;8.60;;;;;;;2.17;79.00;94886.75;5053625;28;20286;-81
2022/02/08 08:33:03;;;;;;;8.63;7.03;;;;;;;2.21;78.97;94895.19;5018995;28;20437;-82
2022/02/08 08:35:30;;;;;;;13.77;7.78;;;;;;;2.16;78.89;94887.66;5053598;28;20203;-81
2022/02/08 08:38:03;;;;;;;10.32;7.55;;;;;;;2.16;79.00;94887.66;5053323;28;20206;-82
2022/02/08 08:40:43;;;;;;;9.35;6.82;;;;;;;2.14;78.35;94886.91;5053486;28;20322;-82
2022/02/08 08:43:34;;;;;;;14.55;10.70;;;;;;;2.06;79.51;94895.09;5053716;28;20642;-82
2022/02/08 08:49:04;;;;;;;25.10;12.20;;;;;;;2.15;79.58;94904.94;5053397;28;20421;-83
2022/02/08 08:54:54;;;;;;;20.73;12.30;;;;;;;2.17;78.70;94915.22;5052791;28;20397;-83
2022/02/08 08:57:20;;;;;;;10.47;6.50;;;;;;;2.17;79.03;94913.47;5053323;28;20202;-83
2022/02/08 08:59:47;;;;;;;13.75;10.00;;;;;;;2.17;79.51;94917.81;5018570;28;20445;-83
2022/02/08 09:02:14;;;;;;;12.97;9.20;;;;;;;2.26;79.26;94919.09;5053365;28;20210;-83
2022/02/08 09:04:44;;;;;;;10.30;7.47;;;;;;;2.25;79.19;94930.34;5053461;28;20438;-85
2022/02/08 09:10:44;;;;;;;11.60;8.50;;;;;;;2.22;77.95;94946.03;5053157;28;20258;-83
2022/02/08 09:13:21;;;;;;;12.18;8.30;;;;;;;2.22;78.30;94959.00;5053224;28;20541;-82
2022/02/08 09:15:56;;;;;;;11.70;7.80;;;;;;;2.22;78.26;94949.47;5054939;28;20214;-82
2022/02/08 09:18:44;;;;;;;10.13;7.00;;;;;;;2.22;78.59;94946.03;5025062;28;20479;-83
2022/02/08 09:24:20;;;;;;;10.73;9.00;;;;;;;2.34;78.76;94960.97;5057121;28;20929;-82
2022/02/08 09:27:42;;;;;;;14.45;10.30;;;;;;;2.44;78.36;94959.56;5057692;28;20805;-83
2022/02/08 09:30:11;;;;;;;14.37;10.20;;;;;;;2.46;77.48;94960.31;5057047;28;20237;-82
2022/02/08 09:32:44;;;;;;;16.35;10.63;;;;;;;2.47;78.14;94955.06;5057285;28;20494;-82
2022/02/08 09:35:14;;;;;;;9.83;8.93;;;;;;;2.52;78.28;94956.56;5058192;28;20289;-83
2022/02/08 09:37:43;;;;;;;20.67;10.80;;;;;;;2.60;77.43;94960.44;5049006;28;20462;-82
2022/02/08 09:40:12;;;;;;;21.47;15.90;;;;;;;2.69;77.50;94959.13;5037835;28;20466;-82
2022/02/08 09:42:42;;;;;;;33.37;18.30;;;;;;;2.87;76.79;94957.28;5037596;28;20438;-82
2022/02/08 09:45:12;;;;;;;25.97;16.10;;;;;;;2.93;76.78;94949.19;5035853;28;20434;-82
2022/02/08 09:47:45;;;;;;;20.97;14.20;;;;;;;2.95;76.05;94960.31;5017467;28;20464;-83
2022/02/08 09:50:20;;;;;;;15.60;11.00;;;;;;;2.96;75.37;94949.88;5035724;28;20454;-82
2022/02/08 09:52:50;;;;;;;15.60;9.90;;;;;;;2.97;75.16;94950.69;5039164;28;20469;-83
2022/02/08 09:55:18;;;;;;;16.90;12.33;;;;;;;3.04;75.17;94963.25;5045021;28;20503;-83
2022/02/08 09:57:47;;;;;;;25.03;16.80;;;;;;;3.06;74.68;94958.81;5036883;28;20454;-83
2022/02/08 10:00:15;;;;;;;26.40;15.40;;;;;;;3.15;75.10;94959.22;5036487;28;20482;-82
2022/02/08 10:02:42;;;;;;;22.40;12.83;;;;;;;3.23;75.22;94957.91;5038072;28;20443;-82
2022/02/08 10:05:10;;;;;;;24.83;14.73;;;;;;;3.45;75.48;94954.91;5047446;28;20456;-82
2022/02/08 10:07:37;;;;;;;39.97;24.13;;;;;;;3.57;74.39;94951.66;5054769;28;20462;-82
2022/02/08 10:10:07;;;;;;;25.30;13.10;;;;;;;3.62;71.19;94960.00;5040156;28;20512;-81
2022/02/08 10:23:54;;;;;;;18.03;8.90;;;;;;;3.75;62.90;94960.13;5054785;28;21034;-83
2022/02/08 10:26:32;;;;;;;15.90;7.57;;;;;;;3.68;63.57;94959.66;5033696;28;20445;-83
2022/02/08 10:29:03;;;;;;;16.57;6.80;;;;;;;3.68;64.20;94961.41;5053908;28;20441;-82
2022/02/08 10:32:04;;;;;;;8.30;5.30;;;;;;;3.74;64.35;94956.69;5055012;28;20451;-83
2022/02/08 10:37:39;;;;;;;6.53;4.63;;;;;;;3.82;63.26;94963.25;5032337;28;20517;-82
2022/02/08 10:40:08;;;;;;;9.43;5.70;;;;;;;3.87;63.20;94963.81;5034931;28;20513;-84
2022/02/08 10:42:36;;;;;;;7.70;5.40;;;;;;;3.91;62.92;94957.50;5034810;28;20439;-83
2022/02/08 10:45:05;;;;;;;13.53;7.30;;;;;;;4.02;62.87;94966.34;5034514;28;20452;-83
2022/02/08 10:47:41;;;;;;;14.40;8.03;;;;;;;4.14;63.51;94959.59;5035090;28;20464;-83
2022/02/08 10:50:10;;;;;;;12.47;8.20;;;;;;;4.29;63.71;94960.44;5034904;28;20453;-83
2022/02/08 10:52:39;;;;;;;14.70;6.73;;;;;;;4.25;62.88;94954.63;5034818;28;20463;-82
2022/02/08 10:55:17;;;;;;;13.63;6.67;;;;;;;4.35;63.36;94962.72;5034373;28;20487;-82
2022/02/08 10:57:51;;;;;;;6.47;4.60;;;;;;;4.30;61.75;94955.16;5017398;28;20451;-83
2022/02/08 11:00:25;;;;;;;6.60;5.60;;;;;;;4.24;62.14;94957.31;5040557;28;20445;-83
2022/02/08 11:02:56;;;;;;;7.47;4.47;;;;;;;4.21;62.00;94960.91;5046655;28;20456;-84
2022/02/08 11:05:29;;;;;;;8.13;5.27;;;;;;;4.17;62.62;94940.41;5040515;28;20465;-83
2022/02/08 11:08:08;;;;;;;6.03;4.07;;;;;;;4.00;62.04;94946.59;5035922;28;20797;-84
2022/02/08 11:10:56;;;;;;;10.20;4.17;;;;;;;3.98;63.33;94953.63;5035903;28;20440;-84
2022/02/08 11:13:41;;;;;;;5.63;5.03;;;;;;;4.00;62.97;94963.00;5043230;28;20458;-84
2022/02/08 11:16:18;;;;;;;3.57;3.30;;;;;;;4.02;62.24;94961.16;5036521;28;20490;-85
2022/02/08 11:19:22;;;;;;;3.73;3.37;;;;;;;4.07;61.97;94973.06;5037376;28;20436;-84
2022/02/08 11:21:58;;;;;;;6.87;4.53;;;;;;;4.18;61.56;94962.84;5055209;28;20487;-84
2022/02/08 11:24:32;;;;;;;5.67;5.00;;;;;;;4.14;61.26;94971.75;5050143;28;20490;-83
2022/02/08 11:27:09;;;;;;;9.37;5.07;;;;;;;4.20;61.49;94969.63;5052891;28;20812;-84
2022/02/08 11:29:40;;;;;;;6.23;3.50;;;;;;;4.25;61.93;94970.19;5050156;28;20458;-83
2022/02/08 11:32:19;;;;;;;5.80;4.20;;;;;;;4.20;60.63;94954.06;5056048;28;20456;-83
2022/02/08 11:43:43;;;;;;;7.60;5.17;;;;;;;3.98;71.04;94977.00;4955587;29;20797;-83
2022/02/08 11:46:29;;;;;;;5.47;4.77;;;;;;;3.81;72.10;94971.94;4954974;29;20459;-82
2022/02/08 12:00:39;;;;;;;6.90;5.90;;;;;;;3.59;75.08;94973.16;4896926;29;20431;-83
2022/02/08 12:06:06;;;;;;;7.97;6.30;;;;;;;3.62;74.38;94975.56;4897331;29;20432;-83
2022/02/08 12:08:36;;;;;;;7.50;6.30;;;;;;;3.59;74.33;94970.56;4896628;29;20449;-83
2022/02/08 12:11:19;;;;;;;9.30;5.63;;;;;;;3.56;74.38;94978.53;4887269;29;20466;-84
2022/02/08 12:14:02;;;;;;;9.03;6.03;;;;;;;3.51;75.42;94977.13;4934670;29;20448;-84
2022/02/08 12:33:44;;;;;;;7.67;5.70;;;;;;;3.90;71.27;94979.19;4973108;28;20489;-83
2022/02/08 12:36:33;;;;;;;6.67;5.97;;;;;;;3.87;71.43;94981.97;4992400;28;20445;-84
2022/02/08 12:51:01;;;;;;;12.53;6.50;;;;;;;3.92;60.25;94995.53;4913687;29;20512;-81
2022/02/08 12:56:13;;;;;;;10.33;5.67;;;;;;;3.89;61.10;95000.88;4857875;29;20435;-84
2022/02/08 12:59:11;;;;;;;6.70;4.33;;;;;;;3.93;60.54;95000.63;4858079;29;20454;-84
2022/02/08 13:04:43;;;;;;;8.97;5.03;;;;;;;3.98;59.86;95015.94;4822835;29;21065;-84
2022/02/08 14:06:17;;;;;;;3.93;3.53;;;;;;;4.29;56.67;95078.16;4975985;28;20429;-82
2022/02/08 14:08:59;;;;;;;5.83;3.90;;;;;;;4.28;56.91;95092.09;4975635;28;20890;-83
2022/02/08 14:14:32;;;;;;;9.83;4.80;;;;;;;4.39;57.31;95094.09;4976412;28;20425;-82
2022/02/08 14:20:16;;;;;;;8.63;5.27;;;;;;;4.42;57.03;95098.28;4975643;28;20418;-84
2022/02/08 14:22:56;;;;;;;26.30;12.47;;;;;;;4.53;58.51;95101.06;4948441;28;20487;-83
2022/02/08 14:25:28;;;;;;;15.93;9.43;;;;;;;4.50;58.29;95111.66;4975686;28;20456;-84
2022/02/08 14:30:47;;;;;;;7.43;4.70;;;;;;;4.39;56.36;95121.84;4994940;28;20491;-83
2022/02/08 14:33:34;;;;;;;8.70;5.50;;;;;;;4.40;57.12;95113.94;4995979;28;20452;-84
2022/02/08 14:36:19;;;;;;;9.47;6.40;;;;;;;4.49;56.37;95125.56;4996152;28;20541;-83
2022/02/08 15:06:29;;;;;;;28.35;15.98;;;;;;;4.54;58.38;95171.16;5013801;28;20435;-82
2022/02/08 15:08:56;;;;;;;41.23;21.10;;;;;;;4.51;61.83;95175.69;5013681;28;20265;-84
2022/02/08 15:11:32;;;;;;;26.60;15.90;;;;;;;4.38;63.89;95166.91;5013665;28;20459;-83
2022/02/08 15:14:00;;;;;;;21.73;13.03;;;;;;;4.33;65.08;95178.38;5013056;28;20530;-83
2022/02/08 15:16:30;;;;;;;25.33;16.00;;;;;;;4.20;66.18;95174.81;5013516;28;20555;-83
2022/02/08 15:18:57;;;;;;;12.50;9.17;;;;;;;4.19;66.25;95182.69;5013580;28;20483;-83
2022/02/08 15:21:29;;;;;;;14.53;8.30;;;;;;;4.19;66.93;95180.91;5013856;28;20472;-84
2022/02/08 15:23:55;;;;;;;17.40;9.77;;;;;;;4.19;66.83;95191.31;5013386;28;20539;-84
2022/02/08 15:26:23;;;;;;;10.80;7.00;;;;;;;4.13;66.94;95190.81;5003781;28;20444;-80
2022/02/08 15:28:51;;;;;;;13.20;7.00;;;;;;;4.09;67.20;95202.28;5013196;28;20454;-83
2022/02/08 15:31:19;;;;;;;19.73;12.30;;;;;;;4.04;67.17;95202.50;5013329;28;20460;-82
2022/02/08 15:33:47;;;;;;;12.90;6.30;;;;;;;3.92;68.17;95200.59;5005245;28;20441;-81
2022/02/08 15:36:16;;;;;;;10.20;6.57;;;;;;;3.92;68.51;95218.75;5012903;28;20438;-82
2022/02/08 15:38:47;;;;;;;7.27;6.10;;;;;;;3.89;67.79;95231.91;5012488;28;20518;-83
2022/02/08 15:41:14;;;;;;;9.07;6.23;;;;;;;3.91;68.72;95233.50;5006064;28;20546;-83
2022/02/08 15:43:41;;;;;;;14.70;8.50;;;;;;;3.85;68.46;95236.44;5024888;28;20872;-84
2022/02/08 15:46:17;;;;;;;23.47;14.80;;;;;;;3.91;68.74;95249.06;5046222;28;20494;-83
2022/02/08 15:48:46;;;;;;;24.83;16.00;;;;;;;3.91;67.51;95254.28;5042314;28;20784;-81
2022/02/08 15:51:19;;;;;;;23.73;14.20;;;;;;;3.88;67.48;95253.59;5046433;28;20451;-82
2022/02/08 15:53:59;;;;;;;22.10;13.43;;;;;;;3.86;67.89;95252.84;5054899;28;20451;-82
2022/02/08 15:56:41;;;;;;;14.63;10.50;;;;;;;3.91;68.50;95258.63;5054950;28;20457;-82
2022/02/08 16:07:29;;;;;;;26.00;15.93;;;;;;;4.05;66.49;95271.72;5053908;28;20484;-83
2022/02/08 16:10:02;;;;;;;97.03;39.10;;;;;;;4.07;64.91;95280.28;5036417;28;20502;-82
2022/02/08 16:15:27;;;;;;;57.50;20.67;;;;;;;4.14;58.75;95284.22;5013024;28;20440;-81
2022/02/08 16:18:14;;;;;;;27.23;13.93;;;;;;;4.17;57.04;95297.03;5012484;28;20452;-83
2022/02/08 16:20:59;;;;;;;189.90;58.27;;;;;;;4.20;59.03;95296.03;5012738;28;20453;-84
2022/02/08 16:26:34;;;;;;;28.13;11.57;;;;;;;4.33;61.92;95312.63;4972280;28;20446;-84
2022/02/08 16:29:11;;;;;;;50.73;22.93;;;;;;;4.32;61.27;95329.97;4931243;28;20495;-83
2022/02/08 16:46:15;;;;;;;68.47;36.70;;;;;;;4.40;65.59;95347.78;4915454;29;20460;-84
2022/02/08 16:54:40;;;;;;;37.90;19.60;;;;;;;4.25;60.16;95357.19;5091338;27;20537;-84
2022/02/08 16:57:14;;;;;;;28.67;15.80;;;;;;;4.04;59.34;95355.72;5091056;28;20922;-83
2022/02/08 16:59:44;;;;;;;28.33;14.23;;;;;;;3.98;58.05;95356.88;5092728;28;20494;-83
2022/02/08 17:02:17;;;;;;;35.73;19.33;;;;;;;4.06;59.01;95359.09;5091481;28;20430;-81
2022/02/08 17:04:44;;;;;;;17.80;10.90;;;;;;;3.99;58.94;95368.09;5090876;28;20495;-81
2022/02/08 17:07:11;;;;;;;39.77;17.70;;;;;;;3.94;59.69;95370.94;5093598;28;20468;-83
2022/02/08 17:09:45;;;;;;;27.37;14.73;;;;;;;3.90;59.32;95369.41;5096011;28;20445;-83
2022/02/08 17:12:18;;;;;;;34.43;12.93;;;;;;;3.86;59.59;95377.44;5089808;28;20430;-80
2022/02/08 17:15:04;;;;;;;37.27;16.10;;;;;;;3.93;61.46;95386.59;5091249;28;20476;-82
2022/02/08 17:18:16;;;;;;;42.10;18.43;;;;;;;4.01;62.45;95380.06;5090770;28;20518;-81
2022/02/08 17:34:37;;;;;;;33.83;11.77;;;;;;;3.97;59.65;95401.94;5048145;28;20562;-80
2022/02/08 17:48:40;;;;;;;14.73;9.30;;;;;;;3.57;59.81;95410.88;5037338;28;20521;-82
2022/02/08 17:51:07;;;;;;;11.33;7.93;;;;;;;3.64;60.05;95426.97;5027761;28;20958;-80
2022/02/08 17:53:34;;;;;;;14.20;7.77;;;;;;;3.54;60.52;95436.97;5027424;28;20506;-83
2022/02/08 17:56:01;;;;;;;15.35;8.80;;;;;;;3.57;60.56;95435.97;4979045;28;20529;-85
2022/02/08 17:58:29;;;;;;;14.77;11.20;;;;;;;3.54;60.67;95442.16;5027931;28;20452;-81
2022/02/08 18:00:57;;;;;;;7.97;6.30;;;;;;;3.48;60.76;95445.06;5028346;28;20445;-83
2022/02/08 18:03:24;;;;;;;11.17;8.13;;;;;;;3.46;60.83;95457.25;5028884;28;20476;-81
2022/02/08 18:05:51;;;;;;;13.03;8.23;;;;;;;3.48;61.24;95452.00;5014085;28;20449;-83
2022/02/08 18:08:20;;;;;;;18.07;8.30;;;;;;;3.60;61.22;95449.66;5015133;28;20437;-79
2022/02/08 18:14:15;;;;;;;14.40;7.90;;;;;;;3.44;60.95;95464.25;5035878;28;20531;-81
2022/02/08 18:16:44;;;;;;;6.90;5.83;;;;;;;3.33;61.45;95462.19;5036539;28;20516;-81
2022/02/08 18:19:15;;;;;;;8.37;4.77;;;;;;;3.27;62.04;95464.22;5035776;28;20930;-81
2022/02/08 18:21:50;;;;;;;13.88;6.82;;;;;;;3.33;61.31;95464.78;5035217;28;20433;-81
2022/02/08 18:24:44;;;;;;;18.57;10.23;;;;;;;3.25;62.00;95461.72;5036091;28;20207;-81
2022/02/08 18:27:29;;;;;;;21.37;11.40;;;;;;;3.22;62.48;95477.41;5021787;28;20448;-86
2022/02/08 19:09:31;;;;;;;8.00;5.57;;;;;;;3.39;63.75;95500.78;4970788;28;20433;-81
2022/02/08 19:12:12;;;;;;;11.77;6.80;;;;;;;3.34;63.81;95507.13;4991038;28;20531;-78
2022/02/08 19:15:18;;;;;;;13.00;7.80;;;;;;;3.33;63.80;95505.44;4993412;28;20538;-79
2022/02/08 19:17:52;;;;;;;15.87;7.50;;;;;;;3.20;64.17;95504.34;4992806;28;20452;-82
2022/02/08 19:20:27;;;;;;;22.90;13.73;;;;;;;3.10;63.70;95519.44;4948554;28;21073;-79
2022/02/08 19:22:54;;;;;;;17.97;9.00;;;;;;;3.08;64.05;95516.09;4993734;28;20428;-80